Lenox, Michigan
Current Conditions -  °F | °C
As of 5:58 AM on Sunday 21 Dec 2014 (Local Time) from KMTC Reporting Station
Few Clouds Few Clouds  
Wind Chill: -5°   Ceiling: Unl
Heat Index: -5°   Visibility: 10mi
Dew Point: -5°   Wind: 0mph
Humidity: 99%   Direction: NA
Pressure: 30.29"   Gusts: NA
Location:  42.7851°N, 82.803°W
Report Text: KMTC 211058Z AUTO 00000KT 10SM FEW032 M05/M05 A3029 RMK AO2 SLP269 T10461047 $
Loading
Personal Weather Stations






























Interactive Weather Map New forecast layout! Learn more

10-Day Weather Forecast

Advertisements
Track Severe Weather on mobile